Time;durP1;ratioP1;P1;durP2;ratioP2;P2;SDS_P1;SDS_P2;PMS_P1;PMS_P2;Temp;Humidity;BMP_temperature;BMP_pressure;BME280_temperature;BME280_humidity;BME280_pressure;Samples;Min_cycle;Max_cycle;Signal;HPM_P1;HPM_P2
2023/09/03 00:03:06;;;;;;;25.65;21.48;;;;;;;15.81;74.85;101411.19;20938423;28;20226;-82
2023/09/03 00:13:08;;;;;;;24.83;21.48;;;;;;;15.55;74.94;101390.53;20919840;28;20206;-82
2023/09/03 00:23:11;;;;;;;26.75;22.50;;;;;;;15.75;74.24;101406.84;20919160;28;20652;-80
2023/09/03 00:33:13;;;;;;;32.05;23.27;;;;;;;15.33;74.48;101406.56;20918460;28;20321;-82
2023/09/03 00:43:16;;;;;;;29.15;22.75;;;;;;;15.14;75.47;101413.78;20926418;28;20501;-79
2023/09/03 00:53:17;;;;;;;27.25;21.23;;;;;;;15.13;74.82;101407.28;20922004;28;20680;-79
2023/09/03 01:03:21;;;;;;;26.85;22.13;;;;;;;15.22;73.91;101429.94;20882535;28;20220;-80
2023/09/03 01:13:28;;;;;;;30.55;22.23;;;;;;;15.16;73.61;101436.97;20907797;28;20202;-80
2023/09/03 01:23:39;;;;;;;27.35;23.25;;;;;;;15.30;73.69;101443.31;20924113;28;20214;-80
2023/09/03 01:33:43;;;;;;;29.38;23.67;;;;;;;15.03;74.10;101441.63;20922675;28;20283;-80
2023/09/03 01:43:45;;;;;;;30.15;23.20;;;;;;;14.70;75.10;101438.38;20928427;28;20310;-78
2023/09/03 01:53:53;;;;;;;28.23;21.33;;;;;;;15.05;72.95;101437.31;20911813;28;20192;-79
2023/09/03 02:03:55;;;;;;;30.35;22.67;;;;;;;14.99;73.57;101447.13;20918542;28;20216;-79
2023/09/03 02:13:58;;;;;;;27.65;21.13;;;;;;;14.74;73.59;101445.06;20933258;28;20196;-78
2023/09/03 02:24:00;;;;;;;27.95;23.50;;;;;;;14.60;74.18;101448.00;20929468;28;20632;-78
2023/09/03 02:34:06;;;;;;;29.63;23.13;;;;;;;14.67;73.77;101441.88;20903801;28;20309;-79
2023/09/03 02:44:09;;;;;;;27.90;21.63;;;;;;;14.33;73.97;101463.25;20914880;28;20238;-79
2023/09/03 02:54:12;;;;;;;31.38;22.67;;;;;;;14.47;74.17;101473.63;20903639;28;20215;-80
2023/09/03 03:04:17;;;;;;;30.77;22.37;;;;;;;14.54;73.02;101445.69;20907160;28;20573;-80
2023/09/03 03:14:20;;;;;;;28.17;21.83;;;;;;;14.42;72.46;101429.31;20927472;28;20208;-79
2023/09/03 03:24:22;;;;;;;27.85;21.65;;;;;;;14.51;72.60;101409.50;20898592;28;20306;-79
2023/09/03 03:34:26;;;;;;;26.70;20.53;;;;;;;14.31;72.96;101410.94;20901452;28;20238;-79
2023/09/03 03:44:27;;;;;;;28.85;21.13;;;;;;;14.10;72.75;101427.66;20905105;28;20239;-79
2023/09/03 03:54:31;;;;;;;30.00;21.77;;;;;;;14.24;74.28;101442.56;20898793;28;20196;-79
2023/09/03 04:04:32;;;;;;;31.42;20.80;;;;;;;14.80;70.84;101457.91;20916136;28;20223;-80
2023/09/03 04:14:37;;;;;;;24.35;20.20;;;;;;;14.49;71.16;101474.16;20961500;28;20195;-80
2023/09/03 04:24:39;;;;;;;25.67;19.80;;;;;;;14.06;72.61;101503.06;20972564;28;20254;-80
2023/09/03 04:34:42;;;;;;;25.92;19.10;;;;;;;13.84;73.18;101529.41;20935185;28;20220;-80
2023/09/03 04:44:43;;;;;;;28.53;21.33;;;;;;;13.75;74.48;101507.88;20941688;28;20230;-80
2023/09/03 04:54:46;;;;;;;54.80;25.10;;;;;;;13.77;76.60;101519.69;20928183;28;20198;-79
2023/09/03 05:04:48;;;;;;;53.22;26.02;;;;;;;13.31;79.40;101520.78;20924353;28;20225;-80
2023/09/03 05:14:52;;;;;;;49.33;28.17;;;;;;;14.05;76.65;101535.34;20914918;28;20298;-79
2023/09/03 05:24:55;;;;;;;46.22;28.50;;;;;;;14.34;75.72;101549.88;20882959;28;20298;-80
2023/09/03 05:34:58;;;;;;;49.90;26.80;;;;;;;14.29;76.80;101555.66;20908446;28;20219;-80
2023/09/03 05:45:00;;;;;;;53.63;27.70;;;;;;;14.23;78.10;101559.81;20881924;28;20218;-79
2023/09/03 05:55:03;;;;;;;67.85;24.67;;;;;;;13.92;79.81;101571.06;20907267;28;20200;-80
2023/09/03 06:05:06;;;;;;;67.93;25.20;;;;;;;14.34;77.42;101594.34;20912910;28;20660;-80
2023/09/03 06:15:10;;;;;;;58.05;26.08;;;;;;;14.45;77.32;101617.56;20931147;28;20200;-81
2023/09/03 06:25:11;;;;;;;60.83;24.77;;;;;;;14.54;76.73;101632.63;20922612;28;20215;-79
2023/09/03 06:35:15;;;;;;;58.58;25.27;;;;;;;14.23;78.12;101639.09;20927770;28;20211;-82
2023/09/03 06:45:17;;;;;;;37.13;22.97;;;;;;;14.04;79.87;101653.38;20908272;28;20446;-78
2023/09/03 06:55:20;;;;;;;52.47;23.43;;;;;;;14.31;78.61;101680.78;20893989;28;20204;-80
2023/09/03 07:05:22;;;;;;;55.72;26.50;;;;;;;14.51;77.17;101701.25;20879581;28;20235;-81
2023/09/03 07:15:26;;;;;;;56.00;26.10;;;;;;;14.53;76.63;101704.59;20881293;28;20513;-80
2023/09/03 07:25:27;;;;;;;36.88;28.20;;;;;;;15.02;76.17;101715.78;20867453;28;20615;-81
2023/09/03 07:35:32;;;;;;;42.13;30.42;;;;;;;14.88;76.52;101717.81;20864400;28;20235;-79
2023/09/03 07:45:34;;;;;;;42.78;31.33;;;;;;;14.96;76.86;101722.69;20855429;28;20280;-81
2023/09/03 07:55:38;;;;;;;44.13;30.67;;;;;;;14.80;77.44;101732.78;20874615;28;20204;-80
2023/09/03 08:05:50;;;;;;;40.03;30.70;;;;;;;14.99;76.78;101733.41;20878286;28;20650;-80
2023/09/03 08:16:13;;;;;;;41.67;31.85;;;;;;;15.48;75.75;101730.63;20881078;28;20282;-78
2023/09/03 08:26:19;;;;;;;42.28;32.53;;;;;;;15.50;75.55;101726.31;20885381;28;20230;-82
2023/09/03 08:36:24;;;;;;;43.88;31.77;;;;;;;14.82;79.21;101721.94;20880573;28;20244;-80
2023/09/03 08:46:31;;;;;;;41.17;29.65;;;;;;;15.64;75.23;101712.81;20894564;28;20274;-80
2023/09/03 08:56:36;;;;;;;38.72;30.40;;;;;;;15.39;76.39;101716.41;20882268;28;20195;-79
2023/09/03 09:06:41;;;;;;;35.92;27.90;;;;;;;15.54;74.56;101730.16;20883389;28;20199;-80
2023/09/03 09:16:45;;;;;;;37.33;29.52;;;;;;;16.03;74.24;101742.31;20887461;28;20206;-80
2023/09/03 09:26:48;;;;;;;33.20;28.35;;;;;;;16.43;73.95;101749.53;20886549;28;20261;-81
2023/09/03 09:36:57;;;;;;;26.75;23.75;;;;;;;16.78;69.42;101753.19;20902446;28;20242;-79
2023/09/03 09:46:59;;;;;;;30.30;24.25;;;;;;;17.27;67.06;101733.88;20888162;28;20226;-82
2023/09/03 09:57:10;;;;;;;27.67;23.23;;;;;;;17.71;66.93;101728.78;20882272;28;20324;-80
2023/09/03 10:07:12;;;;;;;30.67;26.40;;;;;;;16.94;69.17;101733.59;20893956;28;20203;-80
2023/09/03 10:17:16;;;;;;;26.42;23.30;;;;;;;18.27;65.30;101724.56;20887372;28;20659;-81
2023/09/03 10:27:22;;;;;;;20.67;17.88;;;;;;;18.83;59.69;101727.94;20888450;28;20327;-81
2023/09/03 10:37:36;;;;;;;22.17;19.88;;;;;;;18.26;62.01;101737.16;20882093;28;20232;-80
2023/09/03 10:47:58;;;;;;;18.88;16.88;;;;;;;19.25;58.53;101718.00;20874753;28;20654;-80
2023/09/03 10:58:39;;;;;;;17.33;14.80;;;;;;;19.84;57.52;101726.16;20880677;28;20223;-82
2023/09/03 11:08:42;;;;;;;17.42;15.75;;;;;;;19.62;57.75;101718.88;20874020;28;20199;-83
2023/09/03 11:18:48;;;;;;;12.68;10.35;;;;;;;20.01;53.97;101707.91;20868772;28;20234;-83
2023/09/03 11:28:51;;;;;;;10.15;8.13;;;;;;;19.28;52.73;101707.94;20869488;28;20216;-81
2023/09/03 11:38:54;;;;;;;7.53;6.82;;;;;;;19.76;49.09;101700.56;20875010;28;20218;-82
2023/09/03 11:49:00;;;;;;;7.47;6.78;;;;;;;19.68;48.33;101700.34;20880132;28;20281;-80
2023/09/03 11:59:04;;;;;;;6.63;5.93;;;;;;;20.12;49.99;101699.69;20891181;28;20219;-81
2023/09/03 12:09:09;;;;;;;7.18;5.55;;;;;;;19.84;46.90;101691.03;20883489;28;20211;-81
2023/09/03 12:19:10;;;;;;;4.95;4.35;;;;;;;20.97;45.31;101685.03;20859864;28;20224;-82
2023/09/03 12:29:21;;;;;;;3.00;2.70;;;;;;;20.77;45.01;101695.53;20877218;28;20222;-81
2023/09/03 12:39:30;;;;;;;2.70;2.50;;;;;;;20.81;42.87;101695.59;20876806;28;20224;-81
2023/09/03 12:49:33;;;;;;;3.10;2.78;;;;;;;20.42;44.09;101695.28;20877072;28;20559;-81
2023/09/03 12:59:35;;;;;;;4.45;2.95;;;;;;;20.78;42.87;101693.50;20859234;28;20366;-83
2023/09/03 13:09:38;;;;;;;2.53;2.15;;;;;;;20.99;42.71;101694.06;20872110;28;20250;-83
2023/09/03 13:19:42;;;;;;;2.63;2.40;;;;;;;21.45;41.92;101690.41;20870971;28;20374;-80
2023/09/03 13:29:45;;;;;;;5.00;2.90;;;;;;;20.50;42.31;101702.06;20881131;28;20299;-82
2023/09/03 13:39:47;;;;;;;5.78;5.18;;;;;;;20.59;41.07;101689.28;20868187;28;20225;-81
2023/09/03 13:49:51;;;;;;;4.63;3.20;;;;;;;21.18;40.31;101670.44;20874826;28;20204;-81
2023/09/03 13:59:54;;;;;;;3.50;3.20;;;;;;;21.06;42.00;101680.78;20881344;28;20219;-81
2023/09/03 14:09:57;;;;;;;5.70;5.20;;;;;;;20.76;42.09;101673.00;20878265;28;20604;-80
2023/09/03 14:19:59;;;;;;;7.80;4.30;;;;;;;21.37;42.93;101665.66;20866756;28;20321;-80
2023/09/03 14:30:02;;;;;;;4.82;3.60;;;;;;;21.10;43.34;101669.44;20877369;28;20227;-82
2023/09/03 14:40:05;;;;;;;3.95;3.05;;;;;;;20.89;43.94;101669.69;20887406;28;21954;-80
2023/09/03 14:50:10;;;;;;;3.42;2.90;;;;;;;21.26;42.39;101667.44;20913886;28;20240;-81
2023/09/03 15:00:13;;;;;;;5.80;3.00;;;;;;;21.23;42.51;101656.72;20891168;28;20335;-80
2023/09/03 15:10:16;;;;;;;2.88;2.50;;;;;;;21.43;42.33;101661.31;20887189;28;20211;-80
2023/09/03 15:20:18;;;;;;;4.32;3.55;;;;;;;20.46;43.71;101661.09;20889117;28;20226;-80
2023/09/03 15:30:22;;;;;;;4.43;3.30;;;;;;;20.66;44.03;101674.34;20884693;28;20642;-82
2023/09/03 15:40:24;;;;;;;3.75;2.67;;;;;;;20.94;45.05;101674.31;20879881;28;20675;-81
2023/09/03 15:50:28;;;;;;;3.20;2.90;;;;;;;20.93;44.73;101669.78;20867604;28;20211;-80
2023/09/03 16:00:29;;;;;;;3.05;2.10;;;;;;;21.00;44.70;101672.84;20868754;28;20652;-81
2023/09/03 16:10:33;;;;;;;6.05;2.30;;;;;;;20.98;46.33;101678.09;20878968;28;20208;-83
2023/09/03 16:20:36;;;;;;;4.63;2.83;;;;;;;20.56;45.39;101678.56;20858959;28;20211;-81
2023/09/03 16:30:39;;;;;;;1.67;1.58;;;;;;;21.16;45.59;101662.25;20858218;28;20212;-82
2023/09/03 16:40:41;;;;;;;3.05;1.92;;;;;;;20.80;44.63;101682.50;20860541;28;20614;-80
2023/09/03 16:50:44;;;;;;;2.60;1.73;;;;;;;20.37;45.92;101695.56;20859712;28;20196;-81
2023/09/03 17:00:47;;;;;;;1.42;1.15;;;;;;;19.82;47.76;101690.56;21376405;23;20258;-81
2023/09/03 17:10:50;;;;;;;2.78;1.35;;;;;;;19.64;50.17;101695.69;20893008;28;20223;-81
2023/09/03 17:20:52;;;;;;;3.17;1.48;;;;;;;19.43;51.13;101690.13;20885162;28;20513;-80
2023/09/03 17:31:00;;;;;;;1.83;1.35;;;;;;;19.53;54.15;101685.94;20879263;28;20226;-80
2023/09/03 17:41:02;;;;;;;2.17;1.40;;;;;;;19.41;51.78;101680.25;20847861;28;20616;-80
2023/09/03 17:51:05;;;;;;;3.47;1.38;;;;;;;19.04;52.85;101674.47;20858389;28;20195;-81
2023/09/03 18:01:06;;;;;;;2.55;1.83;;;;;;;18.97;53.52;101674.22;20865304;28;20231;-78
2023/09/03 18:11:13;;;;;;;2.55;1.88;;;;;;;18.81;54.91;101681.81;20796931;28;20463;-79
2023/09/03 18:21:15;;;;;;;5.10;2.00;;;;;;;18.75;52.96;101674.66;20826155;28;20277;-81
2023/09/03 18:31:19;;;;;;;3.55;1.48;;;;;;;18.13;55.87;101692.66;20805653;28;20221;-80
2023/09/03 18:41:21;;;;;;;2.92;2.10;;;;;;;18.07;56.24;101702.59;20797815;28;20587;-82
2023/09/03 18:51:25;;;;;;;3.47;2.80;;;;;;;17.52;59.81;101698.75;20780790;28;20201;-81
2023/09/03 19:01:28;;;;;;;4.15;2.72;;;;;;;17.41;61.38;101690.94;20790018;28;20561;-81
2023/09/03 19:11:31;;;;;;;4.60;2.60;;;;;;;17.44;61.05;101702.47;20800423;28;20204;-81
2023/09/03 19:21:33;;;;;;;4.13;2.92;;;;;;;17.19;62.96;101712.75;20824398;28;20552;-81
2023/09/03 19:31:36;;;;;;;5.10;3.47;;;;;;;16.79;63.67;101714.22;20779648;28;20585;-83
2023/09/03 19:41:38;;;;;;;3.83;3.20;;;;;;;16.84;64.58;101719.75;20790996;28;20225;-80
2023/09/03 19:51:41;;;;;;;4.95;3.53;;;;;;;16.36;65.57;101720.81;20794246;28;20202;-81
2023/09/03 20:01:43;;;;;;;4.30;3.22;;;;;;;16.77;64.60;101702.34;20832010;28;20223;-81
2023/09/03 20:11:46;;;;;;;5.38;3.25;;;;;;;16.85;62.82;101690.16;20825882;28;20236;-81
2023/09/03 20:21:48;;;;;;;4.43;3.05;;;;;;;16.41;63.73;101686.50;20794491;28;20228;-81
2023/09/03 20:31:51;;;;;;;4.68;3.28;;;;;;;16.30;64.49;101688.03;20772758;28;20263;-81
2023/09/03 20:41:53;;;;;;;4.20;3.20;;;;;;;16.03;65.85;101669.31;20795462;28;20257;-81
2023/09/03 20:51:56;;;;;;;6.53;3.92;;;;;;;16.37;63.50;101674.16;20790234;28;20311;-81
2023/09/03 21:01:58;;;;;;;4.55;2.80;;;;;;;16.02;63.83;101678.19;20808520;28;20225;-80
2023/09/03 21:12:01;;;;;;;3.65;3.00;;;;;;;15.94;64.46;101665.66;20783128;28;20200;-80
2023/09/03 21:22:03;;;;;;;3.10;2.83;;;;;;;15.96;63.80;101657.66;20802767;28;20231;-82
2023/09/03 21:32:06;;;;;;;4.10;2.70;;;;;;;16.04;64.19;101679.53;20803146;28;20224;-81
2023/09/03 21:42:08;;;;;;;6.28;2.53;;;;;;;16.06;62.99;101676.34;20807843;28;20660;-82
2023/09/03 21:52:16;;;;;;;3.58;2.97;;;;;;;15.93;62.85;101674.50;20800592;28;20201;-81
2023/09/03 22:02:19;;;;;;;4.10;2.97;;;;;;;15.77;63.46;101679.81;20799719;28;20226;-81
2023/09/03 22:12:22;;;;;;;2.40;2.20;;;;;;;15.50;63.37;101677.22;20822897;28;20193;-82
2023/09/03 22:22:24;;;;;;;4.78;2.33;;;;;;;15.44;63.75;101685.91;20789077;28;20244;-81
2023/09/03 22:32:27;;;;;;;3.40;2.33;;;;;;;15.70;62.11;101690.81;20792637;28;20231;-81
2023/09/03 22:42:29;;;;;;;2.60;2.33;;;;;;;15.57;62.29;101695.47;20791930;28;20255;-80
2023/09/03 22:52:32;;;;;;;3.58;2.42;;;;;;;15.06;65.05;101707.47;20800813;28;20215;-80
2023/09/03 23:02:33;;;;;;;4.32;2.97;;;;;;;14.52;67.27;101698.09;20810868;28;20236;-81
2023/09/03 23:12:37;;;;;;;2.75;2.47;;;;;;;14.89;65.84;101690.31;20786249;28;20209;-81
2023/09/03 23:22:38;;;;;;;3.05;2.33;;;;;;;15.30;63.37;101678.69;20759255;28;20239;-81
2023/09/03 23:32:45;;;;;;;2.90;2.70;;;;;;;14.61;64.89;101690.50;20777206;28;20212;-82
2023/09/03 23:42:47;;;;;;;5.15;2.60;;;;;;;14.78;65.41;101688.94;20769790;28;20307;-80
2023/09/03 23:52:50;;;;;;;2.58;2.38;;;;;;;14.47;65.90;101703.06;20802382;28;20203;-81
